createdAt,value
2019-01-14T00:03:55.450Z,3.98
2019-01-14T00:06:24.512Z,4.06
2019-01-14T00:08:53.551Z,4.00
2019-01-14T00:11:23.519Z,3.95
2019-01-14T00:13:52.590Z,3.99
2019-01-14T00:16:21.685Z,3.90
2019-01-14T00:18:50.737Z,4.10
2019-01-14T00:21:19.787Z,4.05
2019-01-14T00:23:50.956Z,4.09
2019-01-14T00:26:20.297Z,4.12
2019-01-14T00:28:49.347Z,4.02
2019-01-14T00:33:54.606Z,3.98
2019-01-14T00:36:23.655Z,3.91
2019-01-14T00:38:54.622Z,3.92
2019-01-14T00:41:23.699Z,3.90
2019-01-14T00:43:52.796Z,3.82
2019-01-14T00:46:23.746Z,3.79
2019-01-14T00:51:29.014Z,3.67
2019-01-14T00:54:02.056Z,3.64
2019-01-14T00:56:31.131Z,3.53
2019-01-14T00:59:01.119Z,3.41
2019-01-14T01:01:31.113Z,3.42
2019-01-14T01:04:01.212Z,3.46
2019-01-14T01:06:31.191Z,3.54
2019-01-14T01:09:00.250Z,3.56
2019-01-14T01:11:29.294Z,3.54
2019-01-14T01:13:58.335Z,3.55
2019-01-14T01:16:27.368Z,3.57
2019-01-14T01:18:56.407Z,3.54
2019-01-14T01:21:25.451Z,3.49
2019-01-14T01:26:30.327Z,3.39
2019-01-14T01:28:59.415Z,3.29
2019-01-14T01:31:28.467Z,3.20
2019-01-14T01:36:33.937Z,2.98
2019-01-14T01:39:03.520Z,2.75
2019-01-14T01:41:32.555Z,2.67
2019-01-14T01:44:01.616Z,2.57
2019-01-14T01:46:30.662Z,2.48
2019-01-14T01:48:59.702Z,2.35
2019-01-14T01:51:29.744Z,2.23
2019-01-14T01:54:00.138Z,2.28
2019-01-14T01:56:29.178Z,2.24
2019-01-14T01:58:58.261Z,2.30
2019-01-14T02:01:27.272Z,2.33
2019-01-14T02:03:57.266Z,2.40
2019-01-14T02:06:39.122Z,2.45
2019-01-14T02:09:05.042Z,2.47
2019-01-14T02:11:34.078Z,2.58
2019-01-14T02:14:03.126Z,2.59
2019-01-14T02:16:32.187Z,2.62
2019-01-14T02:19:01.231Z,2.47
2019-01-14T02:21:30.434Z,2.46
2019-01-14T02:23:59.478Z,2.51
2019-01-14T02:26:28.528Z,2.47
2019-01-14T02:28:57.604Z,2.52
2019-01-14T02:31:27.597Z,2.49
2019-01-14T02:33:56.655Z,2.51
2019-01-14T02:36:25.735Z,2.53
2019-01-14T02:38:54.777Z,2.55
2019-01-14T02:43:59.558Z,2.63
2019-01-14T02:46:28.596Z,2.62
2019-01-14T02:49:04.996Z,2.65
2019-01-14T02:51:35.645Z,2.69
2019-01-14T02:54:04.694Z,2.74
2019-01-14T02:56:33.760Z,2.63
2019-01-14T02:59:02.795Z,2.56
2019-01-14T03:01:32.824Z,2.55
2019-01-14T03:04:01.877Z,2.59
2019-01-14T03:06:30.894Z,2.62
2019-01-14T03:08:59.966Z,2.61
2019-01-14T03:14:08.919Z,2.45
2019-01-14T03:16:37.974Z,2.41
2019-01-14T03:21:43.692Z,2.34
2019-01-14T03:24:12.773Z,2.38
2019-01-14T03:26:41.807Z,2.35
2019-01-14T03:31:49.540Z,2.38
2019-01-14T03:34:19.517Z,2.47
2019-01-14T03:36:48.561Z,2.49
2019-01-14T03:39:18.661Z,2.43
2019-01-14T03:41:47.693Z,2.43
2019-01-14T03:44:19.028Z,2.48
2019-01-14T03:46:48.081Z,2.51
2019-01-14T03:49:17.159Z,2.57
2019-01-14T03:51:46.203Z,2.52
2019-01-14T03:54:15.254Z,2.49
2019-01-14T03:56:44.301Z,2.49
2019-01-14T03:59:13.384Z,2.48
2019-01-14T04:01:42.442Z,2.54
2019-01-14T04:04:12.595Z,2.63
2019-01-14T04:06:41.672Z,2.69
2019-01-14T04:11:46.960Z,2.71
2019-01-14T04:14:16.716Z,2.71
2019-01-14T04:16:45.763Z,2.73
2019-01-14T04:19:15.170Z,2.75
2019-01-14T04:21:44.238Z,2.82
2019-01-14T04:26:52.095Z,2.85
2019-01-14T04:29:21.140Z,2.87
2019-01-14T04:31:50.198Z,2.83
2019-01-14T04:34:19.245Z,2.86
2019-01-14T04:36:48.279Z,2.84
2019-01-14T04:39:17.355Z,2.87
2019-01-14T04:41:46.399Z,2.78
2019-01-14T04:44:15.456Z,2.81
2019-01-14T04:46:44.499Z,2.88
2019-01-14T04:49:13.543Z,2.93
2019-01-14T04:51:42.633Z,2.87
2019-01-14T04:54:11.700Z,2.85
2019-01-14T04:56:40.746Z,2.84
2019-01-14T04:59:09.842Z,2.84
2019-01-14T05:01:38.889Z,2.83
2019-01-14T05:04:07.970Z,2.80
2019-01-14T05:06:37.022Z,2.80
2019-01-14T05:09:06.060Z,2.83
2019-01-14T05:11:35.140Z,2.73
2019-01-14T05:14:04.184Z,2.62
2019-01-14T05:16:33.266Z,2.55
2019-01-14T05:19:02.306Z,2.57
2019-01-14T05:21:31.380Z,2.56
2019-01-14T05:24:01.417Z,2.44
2019-01-14T05:26:30.465Z,2.41
2019-01-14T05:28:59.487Z,2.30
2019-01-14T05:31:29.515Z,2.25
2019-01-14T05:33:59.531Z,2.23
2019-01-14T05:36:28.616Z,2.25
2019-01-14T05:38:57.748Z,2.23
2019-01-14T05:41:26.800Z,2.35
2019-01-14T05:43:55.837Z,2.33
2019-01-14T05:46:24.912Z,2.33
2019-01-14T05:48:53.963Z,2.36
2019-01-14T05:51:23.032Z,2.40
2019-01-14T05:53:52.078Z,2.35
2019-01-14T05:56:36.118Z,2.33
2019-01-14T05:59:22.046Z,2.32
2019-01-14T06:04:28.627Z,2.33
2019-01-14T06:06:57.667Z,2.33
2019-01-14T06:09:26.760Z,2.36
2019-01-14T06:11:55.819Z,2.40
2019-01-14T06:17:02.573Z,2.50
2019-01-14T06:19:31.642Z,2.48
2019-01-14T06:22:02.067Z,2.53
2019-01-14T06:24:32.498Z,2.52
2019-01-14T06:27:01.988Z,2.58
2019-01-14T06:29:31.095Z,2.57
2019-01-14T06:32:01.715Z,2.60
2019-01-14T06:34:30.775Z,2.62
2019-01-14T06:39:35.000Z,2.70
2019-01-14T06:42:07.501Z,2.67
2019-01-14T06:44:33.091Z,2.63
2019-01-14T06:47:02.145Z,2.66
2019-01-14T06:49:31.200Z,2.69
2019-01-14T06:52:00.271Z,2.73
2019-01-14T06:54:29.544Z,2.78
2019-01-14T06:56:58.356Z,2.83
2019-01-14T06:59:27.411Z,2.79
2019-01-14T07:01:56.458Z,2.85
2019-01-14T07:04:25.564Z,2.75
2019-01-14T07:06:54.609Z,2.82
2019-01-14T07:09:23.976Z,2.76
2019-01-14T07:11:52.996Z,2.82
2019-01-14T07:17:01.281Z,2.57
2019-01-14T07:19:30.352Z,2.54
2019-01-14T07:21:59.375Z,2.54
2019-01-14T07:24:28.436Z,2.53
2019-01-14T07:26:57.475Z,2.56
2019-01-14T07:29:26.534Z,2.45
2019-01-14T07:31:55.580Z,2.40
2019-01-14T07:34:24.640Z,2.43
2019-01-14T07:36:53.695Z,2.43
2019-01-14T07:39:22.748Z,2.44
2019-01-14T07:41:51.788Z,2.41
2019-01-14T07:44:20.826Z,2.42
2019-01-14T07:46:49.891Z,2.38
2019-01-14T07:49:25.580Z,2.45
2019-01-14T07:51:54.627Z,2.45
2019-01-14T07:54:23.674Z,2.50
2019-01-14T07:56:52.799Z,2.47
2019-01-14T07:59:21.855Z,2.50
2019-01-14T08:01:51.397Z,2.54
2019-01-14T08:04:20.452Z,2.58
2019-01-14T08:06:49.542Z,2.63
2019-01-14T08:09:18.593Z,2.60
2019-01-14T08:11:47.627Z,2.61
2019-01-14T08:14:16.702Z,2.62
2019-01-14T08:16:45.725Z,2.71
2019-01-14T08:19:14.789Z,2.82
2019-01-14T08:21:44.864Z,2.83
2019-01-14T08:24:13.950Z,2.74
2019-01-14T08:26:42.984Z,2.74
2019-01-14T08:29:12.106Z,2.76
2019-01-14T08:31:41.249Z,2.73
2019-01-14T08:34:10.272Z,2.74
2019-01-14T08:36:39.316Z,2.73
2019-01-14T08:39:08.372Z,2.76
2019-01-14T08:41:38.441Z,2.76
2019-01-14T08:44:07.460Z,2.86
2019-01-14T08:46:36.506Z,2.87
2019-01-14T08:54:18.299Z,2.71
2019-01-14T08:56:47.334Z,2.65
2019-01-14T08:59:16.455Z,2.64
2019-01-14T09:04:22.713Z,2.54
2019-01-14T09:06:50.746Z,2.52
2019-01-14T09:09:19.795Z,2.58
2019-01-14T09:11:48.843Z,2.48
2019-01-14T09:14:17.896Z,2.40
2019-01-14T09:16:46.951Z,2.46
2019-01-14T09:19:16.768Z,2.43
2019-01-14T09:21:45.855Z,2.41
2019-01-14T09:24:14.917Z,2.42
2019-01-14T09:26:45.042Z,2.41
2019-01-14T09:29:12.992Z,2.48
2019-01-14T09:31:42.066Z,2.48
2019-01-14T09:34:11.110Z,2.61
2019-01-14T09:36:40.157Z,2.61
2019-01-14T09:39:09.204Z,2.61
2019-01-14T09:41:38.242Z,2.73
2019-01-14T09:44:07.304Z,2.64
2019-01-14T09:49:15.000Z,2.65
2019-01-14T09:51:44.063Z,2.76
2019-01-14T09:54:13.151Z,2.74
2019-01-14T09:56:42.214Z,2.76
2019-01-14T09:59:11.266Z,2.75
2019-01-14T10:01:40.322Z,2.66
2019-01-14T10:04:09.362Z,2.66
2019-01-14T10:09:14.217Z,2.81
2019-01-14T10:11:43.235Z,2.77
2019-01-14T10:14:13.233Z,2.70
2019-01-14T10:16:42.288Z,2.67
2019-01-14T10:19:11.323Z,2.59
2019-01-14T10:21:40.382Z,2.49
2019-01-14T10:24:09.412Z,2.54
2019-01-14T10:26:38.499Z,2.51
2019-01-14T10:29:07.545Z,2.55
2019-01-14T10:31:36.625Z,2.58
2019-01-14T10:34:05.784Z,2.63
2019-01-14T10:36:34.847Z,2.59
2019-01-14T10:39:03.871Z,2.49
2019-01-14T10:41:33.006Z,2.39
2019-01-14T10:44:02.027Z,2.35
2019-01-14T10:46:31.077Z,2.33
2019-01-14T10:49:00.128Z,2.25
2019-01-14T10:51:29.171Z,2.13
2019-01-14T10:53:58.211Z,2.08
2019-01-14T10:56:27.247Z,2.03
2019-01-14T10:59:05.158Z,2.03
2019-01-14T11:01:34.182Z,2.05
2019-01-14T11:04:03.246Z,2.13
2019-01-14T11:06:32.469Z,2.26
2019-01-14T11:09:05.799Z,2.32
2019-01-14T11:11:30.554Z,2.32
2019-01-14T11:16:38.316Z,2.23
2019-01-14T11:19:07.332Z,2.24
2019-01-14T11:21:36.384Z,2.25
2019-01-14T11:24:05.432Z,2.31
2019-01-14T11:26:34.500Z,2.34
2019-01-14T11:29:03.543Z,2.40
2019-01-14T11:31:32.601Z,2.45
2019-01-14T11:36:37.394Z,2.48
2019-01-14T11:39:06.436Z,2.62
2019-01-14T11:41:35.523Z,2.70
2019-01-14T11:44:04.597Z,2.69
2019-01-14T11:46:33.650Z,2.77
2019-01-14T11:49:02.723Z,2.86
2019-01-14T11:51:31.761Z,2.90
2019-01-14T11:54:00.798Z,2.97
2019-01-14T11:59:08.621Z,3.01
2019-01-14T12:01:37.673Z,2.94
2019-01-14T12:04:15.610Z,3.06
2019-01-14T12:06:44.815Z,2.97
2019-01-14T12:09:13.854Z,2.97
2019-01-14T12:11:43.139Z,2.91
2019-01-14T12:14:12.338Z,2.83
2019-01-14T12:16:41.413Z,2.76
2019-01-14T12:19:10.442Z,2.76
2019-01-14T12:21:39.482Z,2.64
2019-01-14T12:24:08.539Z,2.59
2019-01-14T12:26:37.567Z,2.63
2019-01-14T12:29:06.621Z,2.57
2019-01-14T12:31:35.892Z,2.43
2019-01-14T12:34:04.934Z,2.46
2019-01-14T12:36:33.979Z,2.45
2019-01-14T12:39:03.022Z,2.44
2019-01-14T12:46:43.875Z,2.34
2019-01-14T12:49:12.895Z,2.38
2019-01-14T12:51:41.965Z,2.37
2019-01-14T12:54:10.979Z,2.08
2019-01-14T12:56:40.035Z,2.10
2019-01-14T13:01:44.264Z,2.19
2019-01-14T13:04:13.319Z,2.12
2019-01-14T13:06:42.424Z,2.20
2019-01-14T13:09:11.469Z,2.26
2019-01-14T13:11:40.519Z,2.34
2019-01-14T13:14:09.562Z,2.40
2019-01-14T13:16:38.612Z,2.37
2019-01-14T13:19:07.664Z,2.37
2019-01-14T13:21:36.766Z,2.34
2019-01-14T13:24:05.822Z,2.35
2019-01-14T13:26:34.865Z,2.41
2019-01-14T13:29:03.967Z,2.43
2019-01-14T13:31:33.011Z,2.46
2019-01-14T13:34:10.384Z,2.42
2019-01-14T13:36:39.462Z,2.43
2019-01-14T13:39:08.490Z,2.40
2019-01-14T13:41:37.589Z,2.47
2019-01-14T13:44:06.644Z,2.43
2019-01-14T13:46:35.690Z,2.42
2019-01-14T13:49:05.809Z,2.41
2019-01-14T13:51:34.849Z,2.47
2019-01-14T13:54:03.944Z,2.44
2019-01-14T13:56:32.972Z,2.48
2019-01-14T13:59:02.026Z,2.53
2019-01-14T14:01:31.459Z,2.51
2019-01-14T14:04:00.536Z,2.42
2019-01-14T14:06:29.599Z,2.45
2019-01-14T14:08:58.655Z,2.39
2019-01-14T14:11:27.731Z,2.35
2019-01-14T14:13:56.775Z,2.32
2019-01-14T14:16:36.721Z,2.34
2019-01-14T14:19:05.875Z,1.95
2019-01-14T14:21:34.976Z,1.27
2019-01-14T14:24:03.974Z,1.11
2019-01-14T14:26:33.815Z,0.93
2019-01-14T14:29:02.871Z,0.89
2019-01-14T14:31:31.990Z,0.84
2019-01-14T14:34:01.029Z,0.82
2019-01-14T14:36:30.495Z,0.82
2019-01-14T14:38:59.566Z,0.90
2019-01-14T14:41:28.607Z,0.90
2019-01-14T14:43:57.654Z,0.94
2019-01-14T14:46:26.733Z,0.96
2019-01-14T14:48:55.742Z,1.01
2019-01-14T14:51:24.840Z,0.94
2019-01-14T14:53:57.999Z,0.95
2019-01-14T14:56:31.220Z,1.01
2019-01-14T14:59:05.640Z,0.85
2019-01-14T15:01:39.135Z,0.80
2019-01-14T15:04:13.240Z,0.80
2019-01-14T15:06:47.014Z,0.81
2019-01-14T15:11:59.314Z,0.82
2019-01-14T15:14:31.662Z,0.80
2019-01-14T15:17:00.701Z,0.68
2019-01-14T15:19:29.742Z,0.70
2019-01-14T15:21:58.804Z,0.76
2019-01-14T15:24:27.902Z,0.75
2019-01-14T15:29:32.677Z,0.81
2019-01-14T15:32:01.786Z,0.77
2019-01-14T15:34:30.862Z,0.83
2019-01-14T15:36:59.923Z,0.74
2019-01-14T15:39:28.965Z,0.68
2019-01-14T15:41:58.059Z,0.66
2019-01-14T15:44:27.096Z,0.70
2019-01-14T15:46:56.212Z,0.80
2019-01-14T15:49:26.197Z,0.79
2019-01-14T15:51:55.287Z,0.82
2019-01-14T15:54:24.386Z,0.71
2019-01-14T15:56:54.406Z,0.79
2019-01-14T15:59:23.459Z,0.82
2019-01-14T16:01:52.583Z,0.80
2019-01-14T16:04:21.642Z,0.84
2019-01-14T16:06:50.735Z,0.80
2019-01-14T16:09:19.795Z,0.89
2019-01-14T16:11:48.835Z,0.82
2019-01-14T16:14:17.888Z,0.79
2019-01-14T16:16:46.932Z,0.83
2019-01-14T16:19:16.023Z,0.89
2019-01-14T16:21:45.158Z,0.85
2019-01-14T16:24:14.243Z,0.82
2019-01-14T16:26:43.289Z,0.81
2019-01-14T16:29:12.361Z,0.80
2019-01-14T16:31:41.393Z,0.82
2019-01-14T16:34:10.496Z,0.68
2019-01-14T16:36:39.581Z,0.65
2019-01-14T16:39:08.730Z,0.72
2019-01-14T16:41:37.772Z,0.70
2019-01-14T16:44:06.818Z,0.66
2019-01-14T16:46:35.879Z,0.57
2019-01-14T16:49:04.953Z,0.62
2019-01-14T16:51:34.007Z,0.64
2019-01-14T16:54:03.071Z,0.63
2019-01-14T16:56:32.187Z,0.62
2019-01-14T16:59:01.239Z,0.59
2019-01-14T17:01:30.352Z,0.53
2019-01-14T17:03:59.429Z,0.49
2019-01-14T17:06:28.522Z,0.50
2019-01-14T17:09:07.321Z,0.55
2019-01-14T17:11:36.772Z,0.54
2019-01-14T17:16:41.575Z,0.45
2019-01-14T17:19:10.667Z,0.39
2019-01-14T17:21:39.756Z,0.45
2019-01-14T17:24:08.800Z,0.45
2019-01-14T17:26:37.860Z,0.40
2019-01-14T17:29:06.910Z,0.42
2019-01-14T17:31:35.959Z,0.39
2019-01-14T17:34:08.733Z,0.32
2019-01-14T17:36:38.737Z,0.26
2019-01-14T17:39:07.787Z,0.28
2019-01-14T17:41:37.771Z,0.33
2019-01-14T17:44:06.815Z,0.32
2019-01-14T17:46:35.858Z,0.30
2019-01-14T17:49:05.032Z,0.29
2019-01-14T17:51:40.105Z,0.26
2019-01-14T17:56:48.922Z,0.26
2019-01-14T17:59:17.938Z,0.29
2019-01-14T18:01:47.012Z,0.26
2019-01-14T18:04:16.296Z,0.18
2019-01-14T18:06:45.407Z,0.27
2019-01-14T18:09:14.433Z,0.28
2019-01-14T18:11:43.490Z,0.29
2019-01-14T18:14:12.558Z,0.39
2019-01-14T18:16:42.384Z,0.40
2019-01-14T18:19:11.844Z,0.42
2019-01-14T18:21:40.919Z,0.51
2019-01-14T18:24:10.080Z,0.51
2019-01-14T18:26:39.246Z,0.49
2019-01-14T18:31:44.937Z,0.62
2019-01-14T18:34:20.849Z,0.59
2019-01-14T18:36:49.999Z,0.54
2019-01-14T18:39:22.805Z,0.63
2019-01-14T18:41:51.889Z,0.61
2019-01-14T18:44:21.146Z,0.54
2019-01-14T18:46:50.183Z,0.57
2019-01-14T18:49:19.273Z,0.60
2019-01-14T18:51:48.327Z,0.58
2019-01-14T18:54:17.381Z,0.61
2019-01-14T18:56:46.434Z,0.58
2019-01-14T18:59:15.482Z,0.58
2019-01-14T19:01:44.536Z,0.58
2019-01-14T19:08:13.502Z,0.56
2019-01-14T19:10:46.333Z,0.58
2019-01-14T19:13:19.396Z,0.59
2019-01-14T19:15:49.596Z,0.59
2019-01-14T19:20:56.348Z,0.59
2019-01-14T19:23:37.814Z,0.55
2019-01-14T19:28:46.173Z,0.57
2019-01-14T19:31:15.238Z,0.49
2019-01-14T19:33:45.197Z,0.57
2019-01-14T19:36:15.150Z,0.58
2019-01-14T19:38:44.206Z,0.55
2019-01-14T19:41:29.031Z,0.60
2019-01-14T19:46:34.774Z,0.58
2019-01-14T19:49:06.824Z,0.50
2019-01-14T19:51:35.858Z,0.47
2019-01-14T19:54:29.765Z,0.46
2019-01-14T19:56:59.771Z,0.58
2019-01-14T19:59:35.625Z,0.59
2019-01-14T20:02:05.129Z,0.59
2019-01-14T20:04:34.273Z,0.58
2019-01-14T20:07:10.244Z,0.64
2019-01-14T20:09:32.493Z,0.70
2019-01-14T20:12:01.563Z,0.68
2019-01-14T20:14:30.632Z,0.62
2019-01-14T20:17:00.684Z,0.62
2019-01-14T20:19:29.748Z,0.70
2019-01-14T20:22:19.835Z,0.57
2019-01-14T20:25:19.561Z,0.57
2019-01-14T20:27:52.245Z,0.54
2019-01-14T20:30:21.305Z,0.49
2019-01-14T20:35:27.596Z,0.36
2019-01-14T20:38:20.506Z,0.36
2019-01-14T20:40:49.588Z,0.29
2019-01-14T20:43:21.840Z,0.22
2019-01-14T20:45:50.895Z,0.26
2019-01-14T20:48:42.619Z,0.26
2019-01-14T20:53:48.344Z,0.28
2019-01-14T20:56:21.800Z,0.21
2019-01-14T20:58:50.909Z,0.16
2019-01-14T21:03:59.260Z,0.06
2019-01-14T21:06:42.137Z,0.03
2019-01-14T21:09:10.969Z,0.06
2019-01-14T21:12:01.837Z,0.06
2019-01-14T21:15:05.863Z,0.20
2019-01-14T21:17:45.619Z,0.07
2019-01-14T21:20:17.262Z,0.03
2019-01-14T21:22:53.675Z,-0.03
2019-01-14T21:25:22.744Z,0.01
2019-01-14T21:27:53.703Z,0.05
2019-01-14T21:33:03.335Z,0.14
2019-01-14T21:35:32.386Z,0.13
2019-01-14T21:38:01.456Z,0.10
2019-01-14T21:40:30.514Z,0.13
2019-01-14T21:42:59.798Z,0.06
2019-01-14T21:45:28.839Z,-0.03
2019-01-14T21:48:02.335Z,-0.17
2019-01-14T21:50:31.743Z,-0.13
2019-01-14T21:53:11.527Z,0.02
2019-01-14T21:55:40.592Z,0.09
2019-01-14T21:58:13.958Z,0.11
2019-01-14T22:01:02.533Z,0.10
2019-01-14T22:03:31.584Z,0.11
2019-01-14T22:08:37.477Z,0.14
2019-01-14T22:13:45.261Z,0.09
2019-01-14T22:16:21.606Z,0.10
2019-01-14T22:21:29.399Z,0.04
2019-01-14T22:24:02.296Z,0.01
2019-01-14T22:26:32.298Z,0.02
2019-01-14T22:29:06.847Z,-0.06
2019-01-14T22:31:37.160Z,-0.10
2019-01-14T22:34:18.364Z,-0.07
2019-01-14T22:37:08.358Z,-0.07
2019-01-14T22:39:39.416Z,-0.14
2019-01-14T22:44:44.266Z,-0.09
2019-01-14T22:47:20.694Z,-0.10
2019-01-14T22:50:19.307Z,-0.12
2019-01-14T22:53:20.156Z,-0.12
2019-01-14T22:56:07.525Z,-0.10
2019-01-14T22:58:36.651Z,-0.14
2019-01-14T23:01:05.712Z,-0.18
2019-01-14T23:03:34.767Z,-0.10
2019-01-14T23:06:15.278Z,-0.03
2019-01-14T23:09:08.066Z,-0.08
2019-01-14T23:11:37.307Z,-0.08
2019-01-14T23:14:23.568Z,-0.10
2019-01-14T23:17:00.707Z,-0.06
2019-01-14T23:19:29.813Z,-0.03
2019-01-14T23:21:59.793Z,-0.05
2019-01-14T23:24:28.859Z,-0.01
2019-01-14T23:26:58.052Z,-0.04
2019-01-14T23:29:27.535Z,0.02
2019-01-14T23:31:56.604Z,-0.06
2019-01-14T23:34:25.684Z,-0.14
2019-01-14T23:37:11.954Z,-0.16
2019-01-14T23:39:44.952Z,-0.25
2019-01-14T23:42:15.125Z,-0.27
2019-01-14T23:47:44.305Z,-0.24
2019-01-14T23:50:15.541Z,-0.23
2019-01-14T23:53:01.788Z,-0.24
2019-01-14T23:55:31.070Z,-0.27
2019-01-14T23:58:15.542Z,-0.29
